Time;durP1;ratioP1;P1;durP2;ratioP2;P2;SDS_P1;SDS_P2;PMS_P1;PMS_P2;Temp;Humidity;BMP_temperature;BMP_pressure;BME280_temperature;BME280_humidity;BME280_pressure;Samples;Min_cycle;Max_cycle;Signal;HPM_P1;HPM_P2
2022/01/12 00:00:25;;;;;;;10.90;4.00;;;;;;;-12.32;81.03;100859.73;108548;1281;138788;-61
2022/01/12 00:02:53;;;;;;;11.20;5.60;;;;;;;-12.36;81.60;100855.91;108796;1281;22529;-61
2022/01/12 00:05:20;;;;;;;10.40;5.30;;;;;;;-12.39;81.62;100861.83;108575;1281;22543;-61
2022/01/12 00:07:50;;;;;;;11.40;4.70;;;;;;;-12.40;81.76;100857.91;108474;1282;139581;-60
2022/01/12 00:10:30;;;;;;;10.80;4.70;;;;;;;-12.42;82.07;100860.77;108835;1281;22468;-61
2022/01/12 00:12:58;;;;;;;14.00;4.80;;;;;;;-12.43;81.76;100861.55;108570;1281;139810;-61
2022/01/12 00:15:26;;;;;;;11.50;4.20;;;;;;;-12.48;81.64;100858.31;108707;1281;22602;-61
2022/01/12 00:17:54;;;;;;;8.60;4.50;;;;;;;-12.51;81.94;100858.27;108590;1281;141143;-61
2022/01/12 00:20:21;;;;;;;11.90;4.90;;;;;;;-12.52;82.13;100856.19;108579;1282;22853;-61
2022/01/12 00:22:51;;;;;;;8.70;3.90;;;;;;;-12.53;81.94;100852.25;108692;1282;22489;-61
2022/01/12 00:33:24;;;;;;;10.70;5.20;;;;;;;-12.49;82.45;100857.46;108448;1283;23250;-61
2022/01/12 00:35:58;;;;;;;9.90;4.60;;;;;;;-12.48;82.74;100856.73;108432;1281;139131;-61
2022/01/12 00:38:29;;;;;;;13.80;5.10;;;;;;;-12.49;82.53;100854.52;108529;1282;22288;-62
2022/01/12 00:40:58;;;;;;;9.10;5.20;;;;;;;-12.51;82.41;100856.67;108527;1283;22573;-61
2022/01/12 00:43:27;;;;;;;12.60;5.30;;;;;;;-12.50;82.58;100861.35;108599;1281;138468;-62
2022/01/12 00:45:56;;;;;;;9.20;4.40;;;;;;;-12.49;82.24;100862.19;108684;1281;23193;-62
2022/01/12 00:48:24;;;;;;;8.60;4.60;;;;;;;-12.52;82.13;100863.88;108564;1281;139265;-61
2022/01/12 00:50:52;;;;;;;12.00;5.50;;;;;;;-12.53;82.56;100861.34;108679;1281;23609;-61
2022/01/12 00:53:20;;;;;;;8.40;4.70;;;;;;;-12.52;82.78;100861.79;108658;1281;22562;-62
2022/01/12 00:55:48;;;;;;;8.90;4.00;;;;;;;-12.47;82.92;100861.04;108561;1282;140059;-61
2022/01/12 00:58:16;;;;;;;13.10;5.20;;;;;;;-12.41;82.95;100861.09;108648;1281;22461;-62
2022/01/12 01:00:43;;;;;;;13.70;6.10;;;;;;;-12.37;83.20;100858.95;108528;1282;138720;-61
2022/01/12 01:03:11;;;;;;;13.10;5.60;;;;;;;-12.35;83.04;100856.56;108703;1281;22606;-61
2022/01/12 01:05:39;;;;;;;11.10;4.70;;;;;;;-12.32;83.00;100855.90;108539;1281;138696;-61
2022/01/12 01:08:09;;;;;;;8.50;4.70;;;;;;;-12.31;82.88;100858.45;108703;1281;22459;-61
2022/01/12 01:10:47;;;;;;;13.80;6.20;;;;;;;-12.29;82.98;100858.20;108360;1283;22469;-61
2022/01/12 01:13:34;;;;;;;12.80;6.00;;;;;;;-12.29;82.80;100855.39;108781;1281;139719;-61
2022/01/12 01:16:19;;;;;;;13.10;5.60;;;;;;;-12.33;82.69;100854.73;108625;1281;23693;-60
2022/01/12 01:27:08;;;;;;;19.20;7.60;;;;;;;-12.51;81.87;100865.94;108660;1281;23310;-61
2022/01/12 01:29:36;;;;;;;13.00;5.50;;;;;;;-12.59;82.19;100855.73;108518;1282;139370;-61
2022/01/12 01:32:07;;;;;;;11.60;4.20;;;;;;;-12.66;82.28;100825.95;108827;1281;23559;-62
2022/01/12 01:34:42;;;;;;;12.10;5.10;;;;;;;-12.65;82.28;100826.46;108613;1281;22541;-62
2022/01/12 01:37:10;;;;;;;13.00;6.00;;;;;;;-12.68;82.39;100823.63;108652;1281;138609;-61
2022/01/12 01:39:38;;;;;;;8.00;4.40;;;;;;;-12.71;82.06;100828.54;108559;1281;23620;-61
2022/01/12 01:42:17;;;;;;;8.80;4.60;;;;;;;-12.74;82.27;100826.23;108452;1283;139200;-61
2022/01/12 01:55:42;;;;;;;12.00;4.60;;;;;;;-12.67;82.38;100830.59;108437;1283;138378;-60
2022/01/12 01:58:10;;;;;;;10.00;4.70;;;;;;;-12.70;82.34;100833.73;108494;1284;23303;-60
2022/01/12 02:00:38;;;;;;;8.40;4.90;;;;;;;-12.70;82.57;100837.23;108398;1283;138962;-61
2022/01/12 02:03:08;;;;;;;9.70;5.00;;;;;;;-12.69;82.34;100835.26;108687;1281;22556;-61
2022/01/12 02:05:42;;;;;;;12.40;5.00;;;;;;;-12.66;82.40;100835.24;107717;1281;22581;-56
2022/01/12 02:08:10;;;;;;;9.80;4.50;;;;;;;-12.69;82.07;100833.66;104340;1281;139549;-56
2022/01/12 02:10:55;;;;;;;11.00;4.50;;;;;;;-12.71;82.16;100832.20;104567;1281;25136;-56
2022/01/12 02:13:23;;;;;;;8.50;4.20;;;;;;;-12.71;82.18;100828.51;104254;1281;140462;-56
2022/01/12 02:15:53;;;;;;;9.20;4.30;;;;;;;-12.71;82.18;100833.39;104384;1285;22676;-56
2022/01/12 02:40:27;;;;;;;9.30;4.70;;;;;;;-12.66;80.91;100829.32;108825;1281;22565;-61
2022/01/12 02:51:33;;;;;;;13.30;5.20;;;;;;;-12.58;80.28;100830.45;109180;1277;22525;-61
2022/01/12 02:54:01;;;;;;;11.00;3.50;;;;;;;-12.59;79.83;100827.38;108914;1277;22477;-61
2022/01/12 02:56:32;;;;;;;12.30;4.70;;;;;;;-12.58;79.87;100832.38;109100;1277;139438;-61
2022/01/12 02:59:00;;;;;;;9.30;4.70;;;;;;;-12.62;79.53;100828.39;108845;1277;22528;-61
2022/01/12 03:04:04;;;;;;;9.20;3.90;;;;;;;-12.66;79.09;100828.77;109147;1277;22712;-61
2022/01/12 03:06:37;;;;;;;11.10;4.20;;;;;;;-12.71;78.86;100829.90;108995;1277;139781;-61
2022/01/12 03:09:06;;;;;;;11.50;4.80;;;;;;;-12.78;78.70;100828.86;109189;1277;22541;-61
2022/01/12 03:11:35;;;;;;;14.10;4.30;;;;;;;-12.83;78.79;100825.63;109187;1277;22623;-61
2022/01/12 03:14:30;;;;;;;6.70;3.90;;;;;;;-12.86;79.08;100828.77;109020;1277;139413;-61
2022/01/12 03:16:59;;;;;;;11.10;4.00;;;;;;;-12.89;78.99;100824.56;108892;1277;22531;-61
2022/01/12 03:19:30;;;;;;;11.90;3.70;;;;;;;-12.94;79.31;100824.77;108852;1277;140027;-61
2022/01/12 03:21:58;;;;;;;9.20;4.30;;;;;;;-12.98;79.32;100822.88;109009;1277;22454;-61
2022/01/12 03:24:26;;;;;;;10.30;4.40;;;;;;;-13.00;79.30;100824.42;108854;1277;139815;-61
2022/01/12 03:26:54;;;;;;;8.50;4.10;;;;;;;-13.07;79.49;100824.41;109151;1276;22517;-61
2022/01/12 03:29:22;;;;;;;12.40;4.40;;;;;;;-13.10;79.95;100826.30;108970;1277;22469;-61
2022/01/12 03:31:50;;;;;;;11.80;5.00;;;;;;;-13.11;79.96;100830.55;108813;1276;140012;-61
2022/01/12 03:34:27;;;;;;;18.70;5.50;;;;;;;-13.10;80.26;100835.92;109191;1277;23320;-61
2022/01/12 03:37:17;;;;;;;12.10;4.60;;;;;;;-13.13;80.01;100830.34;109066;1275;139187;-61
2022/01/12 03:39:43;;;;;;;11.60;4.80;;;;;;;-13.19;79.81;100826.30;109091;1277;22604;-61
2022/01/12 03:42:11;;;;;;;10.30;4.00;;;;;;;-13.25;80.06;100831.80;108932;1277;22449;-61
2022/01/12 03:44:40;;;;;;;8.00;4.40;;;;;;;-13.25;80.14;100827.05;109066;1276;138444;-61
2022/01/12 03:47:07;;;;;;;10.20;4.90;;;;;;;-13.22;80.00;100829.05;108929;1279;22557;-61
2022/01/12 03:49:36;;;;;;;9.50;3.60;;;;;;;-13.26;79.52;100831.86;108848;1276;140456;-61
2022/01/12 03:52:04;;;;;;;22.00;8.40;;;;;;;-13.29;79.82;100832.88;109044;1277;22478;-61
2022/01/12 03:54:34;;;;;;;12.50;3.70;;;;;;;-13.29;79.49;100832.36;109050;1276;139269;-61
2022/01/12 03:57:02;;;;;;;12.00;4.40;;;;;;;-13.31;79.34;100834.39;108875;1278;22442;-62
2022/01/12 03:59:30;;;;;;;11.60;5.80;;;;;;;-13.35;79.18;100828.96;108861;1278;23612;-62
2022/01/12 04:01:59;;;;;;;12.60;4.70;;;;;;;-13.38;79.19;100830.86;108858;1277;138545;-62
2022/01/12 04:04:36;;;;;;;10.60;4.80;;;;;;;-13.40;79.04;100830.96;108875;1278;22505;-62
2022/01/12 04:09:52;;;;;;;11.60;4.70;;;;;;;-13.43;78.42;100830.95;108938;1277;22657;-62
2022/01/12 04:12:21;;;;;;;7.70;4.10;;;;;;;-13.43;78.48;100830.09;108888;1276;139638;-61
2022/01/12 04:14:49;;;;;;;10.30;4.50;;;;;;;-13.41;78.26;100829.96;109110;1277;22529;-62
2022/01/12 04:17:17;;;;;;;11.30;4.40;;;;;;;-13.44;77.92;100829.77;108940;1277;22448;-62
2022/01/12 04:19:46;;;;;;;12.00;5.20;;;;;;;-13.47;77.60;100835.86;108822;1277;139744;-62
2022/01/12 04:26:45;;;;;;;9.90;4.40;;;;;;;-13.63;76.94;100824.91;101673;1312;546048;-61
2022/01/12 04:29:14;;;;;;;9.60;4.60;;;;;;;-13.70;76.68;100822.09;103669;1289;25456;-61
2022/01/12 04:31:42;;;;;;;12.30;5.30;;;;;;;-13.74;76.45;100820.75;103731;1287;138016;-61
2022/01/12 04:34:10;;;;;;;17.10;5.10;;;;;;;-13.80;76.62;100813.86;108227;1286;22466;-61
2022/01/12 04:36:39;;;;;;;12.80;6.30;;;;;;;-13.83;76.57;100818.18;107957;1287;138936;-62
2022/01/12 04:39:07;;;;;;;18.40;5.10;;;;;;;-13.83;76.55;100818.54;108156;1287;23209;-62
2022/01/12 04:41:37;;;;;;;13.80;4.10;;;;;;;-13.82;76.47;100820.95;107960;1285;266612;-61
2022/01/12 04:44:07;;;;;;;20.20;6.70;;;;;;;-13.83;76.28;100824.65;108262;1284;139610;-61
2022/01/12 04:46:51;;;;;;;12.60;5.00;;;;;;;-13.85;76.13;100827.20;108433;1284;22308;-61
2022/01/12 04:50:05;;;;;;;9.70;5.80;;;;;;;-13.87;76.22;100829.76;108229;1284;139559;-61
2022/01/12 04:52:08;;;;;;;10.40;4.00;;;;;;;-13.87;75.98;100831.14;108288;1285;22607;-61
2022/01/12 04:54:36;;;;;;;15.00;5.50;;;;;;;-13.90;75.73;100834.81;108075;1286;139574;-61
2022/01/12 04:57:05;;;;;;;10.90;4.20;;;;;;;-13.93;75.84;100830.71;108230;1286;22443;-61
2022/01/12 04:59:37;;;;;;;11.00;4.80;;;;;;;-13.95;75.69;100832.69;108322;1285;22548;-61
2022/01/12 05:06:22;;;;;;;13.60;5.10;;;;;;;-13.95;75.84;100833.75;108222;1282;138891;-61
2022/01/12 05:07:56;;;;;;;11.30;5.30;;;;;;;-13.95;75.66;100839.19;108230;1285;139131;-61
2022/01/12 05:13:00;;;;;;;12.60;5.10;;;;;;;-13.93;75.71;100842.92;108217;1286;138822;-60
2022/01/12 05:15:32;;;;;;;16.90;5.90;;;;;;;-13.89;75.79;100843.27;108409;1284;22520;-58
2022/01/12 05:18:00;;;;;;;9.10;4.00;;;;;;;-13.86;75.68;100839.86;109160;1276;22521;-58
2022/01/12 05:20:29;;;;;;;13.10;4.60;;;;;;;-13.88;75.59;100844.11;109048;1274;138980;-57
2022/01/12 05:22:57;;;;;;;16.00;5.80;;;;;;;-13.91;75.70;100840.21;109069;1276;22601;-57
2022/01/12 05:25:25;;;;;;;15.80;5.20;;;;;;;-13.93;75.37;100844.00;109061;1276;139812;-57
2022/01/12 05:27:54;;;;;;;12.50;5.40;;;;;;;-13.99;75.28;100849.50;107913;1277;24268;-57
2022/01/12 05:30:22;;;;;;;13.60;5.30;;;;;;;-14.04;75.32;100852.33;104972;1278;22740;-57
2022/01/12 05:32:50;;;;;;;22.10;6.70;;;;;;;-14.10;75.24;100849.80;109052;1277;138091;-58
2022/01/12 05:35:20;;;;;;;24.70;9.50;;;;;;;-14.14;75.48;100855.08;109265;1274;22539;-58
2022/01/12 05:37:48;;;;;;;20.60;8.50;;;;;;;-14.18;75.31;100850.40;109034;1276;138854;-58
2022/01/12 05:40:20;;;;;;;25.80;7.20;;;;;;;-14.24;75.23;100854.83;109138;1276;22500;-58
2022/01/12 05:42:50;;;;;;;11.30;4.70;;;;;;;-14.30;75.38;100853.52;108975;1277;141642;-58
2022/01/12 05:45:23;;;;;;;13.10;6.00;;;;;;;-14.32;75.55;100853.26;109199;1276;22442;-62
2022/01/12 05:50:19;;;;;;;15.40;4.70;;;;;;;-14.32;75.44;100855.54;109059;1277;138564;-62
2022/01/12 05:52:47;;;;;;;14.20;6.60;;;;;;;-14.35;75.26;100849.57;109200;1276;22637;-62
2022/01/12 05:55:15;;;;;;;20.10;7.00;;;;;;;-14.34;75.43;100852.65;109043;1276;139274;-62
2022/01/12 05:57:45;;;;;;;16.70;6.80;;;;;;;-14.34;75.29;100850.05;109196;1277;22641;-62
2022/01/12 06:00:15;;;;;;;15.20;6.80;;;;;;;-14.39;75.15;100849.91;109198;1277;23110;-62
2022/01/12 06:02:47;;;;;;;15.30;6.90;;;;;;;-14.41;75.30;100855.08;109014;1277;139896;-61
2022/01/12 06:05:18;;;;;;;13.10;5.70;;;;;;;-14.43;75.21;100860.80;109225;1276;22692;-62
2022/01/12 06:07:48;;;;;;;12.90;5.30;;;;;;;-14.45;74.83;100863.48;109083;1276;138528;-62
2022/01/12 06:10:17;;;;;;;12.00;5.00;;;;;;;-14.48;74.96;100862.40;109238;1277;22552;-62
2022/01/12 06:12:45;;;;;;;12.90;5.50;;;;;;;-14.51;75.00;100866.87;109045;1277;140201;-61
2022/01/12 06:15:38;;;;;;;13.40;6.10;;;;;;;-14.57;74.52;100867.66;109228;1277;22479;-62
2022/01/12 06:18:07;;;;;;;15.90;6.50;;;;;;;-14.62;74.82;100864.77;109172;1277;22474;-62
2022/01/12 06:20:35;;;;;;;16.60;5.40;;;;;;;-14.66;74.78;100859.70;109092;1276;139322;-62
2022/01/12 06:23:27;;;;;;;14.10;6.30;;;;;;;-14.63;74.90;100860.63;109201;1277;22437;-61
2022/01/12 06:25:56;;;;;;;19.00;6.20;;;;;;;-14.63;74.83;100850.86;109054;1277;139387;-62
2022/01/12 06:28:37;;;;;;;16.50;7.80;;;;;;;-14.66;75.05;100853.59;109193;1276;23175;-62
2022/01/12 06:31:10;;;;;;;13.60;5.10;;;;;;;-14.70;75.01;100852.54;109109;1276;138489;-62
2022/01/12 06:33:43;;;;;;;16.20;4.80;;;;;;;-14.71;75.08;100856.56;109186;1276;23615;-62
2022/01/12 06:36:16;;;;;;;12.50;5.30;;;;;;;-14.71;75.12;100856.23;109226;1276;22506;-62
2022/01/12 06:38:44;;;;;;;14.20;5.20;;;;;;;-14.69;75.34;100858.92;109039;1277;139226;-62
2022/01/12 06:41:13;;;;;;;8.90;4.30;;;;;;;-14.64;75.18;100859.44;109135;1276;22558;-62
2022/01/12 06:43:41;;;;;;;13.30;4.60;;;;;;;-14.59;74.85;100868.29;108915;1277;140489;-62
2022/01/12 06:46:10;;;;;;;11.90;4.40;;;;;;;-14.57;75.03;100866.98;109167;1277;22543;-62
2022/01/12 06:48:38;;;;;;;16.10;5.50;;;;;;;-14.57;74.86;100869.41;109055;1277;140891;-62
2022/01/12 06:51:06;;;;;;;15.70;5.80;;;;;;;-14.60;74.38;100867.63;109188;1277;22530;-62
2022/01/12 06:53:34;;;;;;;11.80;4.50;;;;;;;-14.65;74.58;100867.66;109173;1277;22480;-62
2022/01/12 06:56:02;;;;;;;10.10;4.20;;;;;;;-14.66;74.68;100868.92;109113;1277;138553;-59
2022/01/12 06:58:32;;;;;;;12.30;5.20;;;;;;;-14.67;74.31;100870.52;109171;1277;22414;-59
2022/01/12 07:01:00;;;;;;;13.10;5.50;;;;;;;-14.66;74.36;100874.15;108986;1277;140189;-58
2022/01/12 07:03:33;;;;;;;10.80;5.40;;;;;;;-14.65;74.44;100877.43;109203;1277;22409;-59
2022/01/12 07:06:01;;;;;;;12.70;4.40;;;;;;;-14.63;74.28;100874.56;108975;1277;23471;-59
2022/01/12 07:08:32;;;;;;;10.40;4.40;;;;;;;-14.59;74.46;100876.49;109002;1276;139453;-59
2022/01/12 07:11:00;;;;;;;15.90;5.80;;;;;;;-14.53;74.70;100878.29;109136;1277;23727;-59
2022/01/12 07:13:28;;;;;;;8.20;4.80;;;;;;;-14.47;74.55;100878.94;106189;1277;139185;-59
2022/01/12 07:15:57;;;;;;;14.30;6.20;;;;;;;-14.44;74.31;100877.56;109155;1275;23371;-59
2022/01/12 07:18:26;;;;;;;13.50;5.10;;;;;;;-14.42;74.11;100874.50;109110;1276;22417;-58
2022/01/12 07:20:55;;;;;;;11.60;4.50;;;;;;;-14.39;74.12;100881.31;109096;1276;138330;-58
2022/01/12 07:23:23;;;;;;;17.70;5.50;;;;;;;-14.38;73.84;100879.33;109252;1275;24049;-59
2022/01/12 07:25:52;;;;;;;13.60;4.40;;;;;;;-14.43;73.58;100877.86;107741;1275;138346;-62
2022/01/12 07:28:20;;;;;;;12.60;5.10;;;;;;;-14.48;73.54;100881.41;104896;1277;24253;-62
2022/01/12 07:30:48;;;;;;;10.30;4.60;;;;;;;-14.46;73.65;100883.09;109081;1274;139645;-62
2022/01/12 07:33:17;;;;;;;9.20;4.60;;;;;;;-14.38;74.09;100884.77;109233;1274;22494;-62
2022/01/12 07:35:45;;;;;;;15.50;5.80;;;;;;;-14.34;73.43;100880.76;109251;1275;22470;-62
2022/01/12 07:38:12;;;;;;;12.40;5.40;;;;;;;-14.35;73.62;100879.03;109147;1276;139406;-62
2022/01/12 07:40:41;;;;;;;13.70;4.90;;;;;;;-14.31;73.71;100880.08;109201;1276;22492;-62
2022/01/12 07:43:08;;;;;;;12.20;4.70;;;;;;;-14.29;73.43;100877.40;109054;1276;138966;-62
2022/01/12 07:45:36;;;;;;;10.30;4.90;;;;;;;-14.28;73.19;100880.67;109285;1276;23395;-62
2022/01/12 07:48:04;;;;;;;11.80;4.40;;;;;;;-14.30;73.73;100883.37;109192;1276;23272;-62
2022/01/12 07:50:34;;;;;;;11.80;4.60;;;;;;;-14.29;73.82;100875.49;109108;1276;139693;-62
2022/01/12 07:53:02;;;;;;;10.70;5.50;;;;;;;-14.26;73.92;100879.00;109193;1276;22256;-62
2022/01/12 07:55:29;;;;;;;19.90;6.20;;;;;;;-14.24;73.64;100880.30;109139;1276;139252;-59
2022/01/12 07:57:58;;;;;;;15.70;6.00;;;;;;;-14.23;73.60;100878.16;109201;1276;22460;-59
2022/01/12 08:00:26;;;;;;;8.00;4.10;;;;;;;-14.21;73.41;100884.70;109053;1276;22469;-58
2022/01/12 08:02:54;;;;;;;13.40;5.00;;;;;;;-14.20;73.78;100882.92;109116;1276;138312;-59
2022/01/12 08:05:22;;;;;;;11.80;5.30;;;;;;;-14.16;73.45;100886.40;109248;1276;23213;-59
2022/01/12 08:07:52;;;;;;;7.40;3.90;;;;;;;-14.11;73.46;100884.09;109111;1275;139271;-59
2022/01/12 08:10:20;;;;;;;9.40;4.00;;;;;;;-14.10;73.08;100878.79;109193;1276;22852;-59
2022/01/12 08:12:48;;;;;;;15.70;4.90;;;;;;;-14.12;72.81;100878.91;109165;1273;138183;-59
2022/01/12 08:15:17;;;;;;;10.80;4.80;;;;;;;-14.14;73.06;100877.95;109326;1274;23536;-57
2022/01/12 08:17:45;;;;;;;13.70;4.90;;;;;;;-14.10;73.22;100881.59;109410;1273;22416;-58
2022/01/12 08:20:18;;;;;;;18.70;5.70;;;;;;;-14.05;73.54;100889.55;109218;1273;139535;-58
2022/01/12 08:22:46;;;;;;;17.90;5.10;;;;;;;-14.02;73.60;100887.68;109310;1273;22494;-58
2022/01/12 08:25:14;;;;;;;14.00;4.80;;;;;;;-13.98;73.83;100886.27;109088;1273;138601;-61
2022/01/12 08:27:42;;;;;;;13.90;4.10;;;;;;;-13.93;73.87;100878.73;104855;1274;25300;-61
2022/01/12 08:30:16;;;;;;;9.00;4.20;;;;;;;-13.90;73.81;100878.61;109145;1274;23294;-61
2022/01/12 08:32:45;;;;;;;11.90;5.00;;;;;;;-13.90;73.83;100873.20;109227;1273;138137;-61
2022/01/12 08:35:13;;;;;;;11.70;4.70;;;;;;;-13.85;73.97;100883.40;109330;1273;23372;-61
2022/01/12 08:37:41;;;;;;;10.20;4.20;;;;;;;-13.79;73.82;100875.99;109183;1273;138892;-62
2022/01/12 08:40:11;;;;;;;6.90;3.50;;;;;;;-13.75;73.84;100877.20;109336;1273;23175;-62
2022/01/12 08:42:39;;;;;;;11.40;4.30;;;;;;;-13.72;73.97;100874.80;109237;1273;139012;-61
2022/01/12 08:45:07;;;;;;;8.60;4.10;;;;;;;-13.71;74.23;100874.73;109398;1273;22448;-61
2022/01/12 08:47:36;;;;;;;10.70;4.70;;;;;;;-13.67;74.23;100876.09;109373;1273;23223;-61
2022/01/12 08:50:04;;;;;;;9.20;3.50;;;;;;;-13.63;74.06;100873.30;109303;1272;140868;-62
2022/01/12 08:52:33;;;;;;;7.90;3.90;;;;;;;-13.63;73.60;100872.79;109273;1274;22474;-61
2022/01/12 08:55:01;;;;;;;11.70;4.50;;;;;;;-13.62;73.73;100870.14;109158;1273;139424;-62
2022/01/12 08:57:29;;;;;;;11.20;3.70;;;;;;;-13.59;73.35;100868.07;109266;1273;22535;-62
2022/01/12 08:59:57;;;;;;;11.50;4.70;;;;;;;-13.59;73.10;100864.21;109387;1272;22444;-63
2022/01/12 09:02:26;;;;;;;10.80;3.80;;;;;;;-13.54;73.24;100863.95;109325;1273;138918;-62
2022/01/12 09:04:54;;;;;;;7.80;4.70;;;;;;;-13.51;72.88;100863.64;109426;1273;22404;-63
2022/01/12 09:07:22;;;;;;;7.20;3.50;;;;;;;-13.49;72.76;100856.90;109289;1273;138758;-62
2022/01/12 09:09:50;;;;;;;11.30;5.40;;;;;;;-13.45;72.75;100858.12;109387;1273;22467;-62
2022/01/12 09:12:18;;;;;;;12.80;6.20;;;;;;;-13.39;72.89;100851.70;109428;1273;22269;-62
2022/01/12 09:14:46;;;;;;;14.80;6.10;;;;;;;-13.34;72.98;100850.25;109104;1274;140205;-62
2022/01/12 09:17:16;;;;;;;15.40;6.30;;;;;;;-13.32;72.90;100847.35;109384;1273;22609;-62
2022/01/12 09:19:45;;;;;;;19.70;7.10;;;;;;;-13.32;72.93;100841.06;109271;1273;140333;-61
2022/01/12 09:22:13;;;;;;;14.80;4.90;;;;;;;-13.28;73.05;100848.94;109394;1273;23353;-62
2022/01/12 09:24:44;;;;;;;12.30;6.00;;;;;;;-13.24;72.85;100847.64;109158;1273;139759;-62
2022/01/12 09:27:12;;;;;;;14.40;6.60;;;;;;;-13.20;72.52;100844.31;109357;1273;22639;-63
2022/01/12 09:29:41;;;;;;;13.80;6.60;;;;;;;-13.21;72.45;100839.65;109305;1273;23672;-62
2022/01/12 09:32:10;;;;;;;18.70;6.50;;;;;;;-13.17;72.55;100834.58;109217;1273;138373;-62
2022/01/12 09:34:39;;;;;;;15.00;5.30;;;;;;;-13.13;72.45;100836.94;109334;1273;23197;-62
2022/01/12 09:37:07;;;;;;;13.60;5.60;;;;;;;-13.11;72.10;100842.07;105643;1272;139388;-57
2022/01/12 09:39:36;;;;;;;8.60;4.80;;;;;;;-13.15;71.90;100837.27;104925;1273;23998;-57
2022/01/12 09:42:04;;;;;;;15.90;6.10;;;;;;;-13.17;72.44;100834.56;104818;1275;22793;-57
2022/01/12 09:44:35;;;;;;;12.70;5.50;;;;;;;-13.11;72.53;100836.16;109251;1273;138595;-59
2022/01/12 09:47:05;;;;;;;16.90;6.00;;;;;;;-13.09;72.60;100834.82;109387;1273;23928;-59
2022/01/12 09:49:33;;;;;;;14.10;6.10;;;;;;;-13.07;72.43;100833.87;109248;1273;139393;-59
2022/01/12 09:52:02;;;;;;;10.10;5.30;;;;;;;-13.04;72.49;100829.68;109422;1271;22270;-59
2022/01/12 09:54:30;;;;;;;12.70;5.70;;;;;;;-13.00;72.66;100831.20;108373;1273;22637;-58
2022/01/12 09:56:59;;;;;;;9.60;4.20;;;;;;;-12.95;72.46;100827.79;109220;1273;137154;-59
2022/01/12 09:59:27;;;;;;;15.20;4.00;;;;;;;-12.89;71.94;100818.10;109263;1273;22490;-58
2022/01/12 10:01:55;;;;;;;6.80;3.70;;;;;;;-12.86;71.74;100817.56;109252;1273;138806;-59
2022/01/12 10:04:25;;;;;;;11.90;4.60;;;;;;;-12.84;71.66;100813.10;109359;1273;22504;-58
2022/01/12 10:06:57;;;;;;;15.20;6.00;;;;;;;-12.84;71.45;100815.72;109243;1273;139443;-62
2022/01/12 10:09:39;;;;;;;14.10;5.10;;;;;;;-12.83;71.69;100814.27;109360;1273;22534;-62
2022/01/12 10:12:13;;;;;;;10.90;4.10;;;;;;;-12.77;71.75;100811.15;109391;1273;22427;-62
2022/01/12 10:14:52;;;;;;;8.50;3.50;;;;;;;-12.76;71.42;100822.48;109114;1274;138557;-62
2022/01/12 10:17:30;;;;;;;7.30;3.10;;;;;;;-12.74;71.49;100818.55;109371;1273;22461;-63
2022/01/12 10:20:24;;;;;;;8.80;4.00;;;;;;;-12.72;71.32;100810.73;109291;1272;139919;-62
2022/01/12 10:23:06;;;;;;;6.60;3.00;;;;;;;-12.69;71.35;100812.33;109336;1273;22542;-63
2022/01/12 10:25:36;;;;;;;5.80;3.30;;;;;;;-12.62;71.09;100816.70;105163;1272;138870;-62
2022/01/12 10:28:18;;;;;;;4.90;3.10;;;;;;;-12.59;70.91;100812.01;104926;1274;25485;-62
2022/01/12 10:31:00;;;;;;;6.00;3.10;;;;;;;-12.57;70.88;100809.41;104960;1271;138830;-62
2022/01/12 10:33:33;;;;;;;7.50;3.30;;;;;;;-12.53;70.17;100809.02;109376;1273;23227;-63
2022/01/12 10:36:03;;;;;;;8.80;3.90;;;;;;;-12.56;70.22;100807.79;109424;1273;22438;-59
2022/01/12 10:38:32;;;;;;;8.70;2.80;;;;;;;-12.60;70.25;100804.50;109323;1271;138948;-58
2022/01/12 10:41:03;;;;;;;8.00;4.00;;;;;;;-12.56;70.47;100809.69;109452;1271;22459;-59
2022/01/12 10:43:38;;;;;;;9.10;4.10;;;;;;;-12.51;70.65;100811.73;109357;1272;139426;-58
2022/01/12 10:46:08;;;;;;;13.70;5.30;;;;;;;-12.46;70.89;100810.24;109512;1271;22586;-59
2022/01/12 10:48:39;;;;;;;14.90;5.80;;;;;;;-12.42;70.76;100806.53;109500;1271;24692;-59
2022/01/12 10:51:07;;;;;;;8.90;3.80;;;;;;;-12.38;70.72;100809.09;109351;1273;139887;-59
2022/01/12 10:53:36;;;;;;;10.20;5.00;;;;;;;-12.37;70.35;100806.98;109467;1273;22452;-59
2022/01/12 10:56:07;;;;;;;10.30;4.60;;;;;;;-12.45;70.14;100809.48;109394;1272;140148;-59
2022/01/12 10:58:41;;;;;;;11.20;4.50;;;;;;;-12.54;69.88;100808.35;109321;1273;22539;-59
2022/01/12 11:01:10;;;;;;;11.40;4.50;;;;;;;-12.61;69.92;100803.70;109346;1272;139850;-60
2022/01/12 11:03:38;;;;;;;8.60;4.00;;;;;;;-12.68;69.80;100801.05;109474;1271;22438;-58
2022/01/12 11:06:07;;;;;;;7.60;3.40;;;;;;;-12.72;70.05;100804.79;109521;1272;23241;-61
2022/01/12 11:08:35;;;;;;;7.30;3.80;;;;;;;-12.70;70.32;100799.06;109319;1272;139235;-62
2022/01/12 11:11:03;;;;;;;12.20;4.50;;;;;;;-12.62;70.07;100795.33;109542;1272;22396;-62
2022/01/12 11:13:31;;;;;;;12.80;4.90;;;;;;;-12.59;70.02;100795.68;109389;1271;139387;-62
2022/01/12 11:16:00;;;;;;;9.00;4.50;;;;;;;-12.55;70.05;100795.14;109493;1271;22501;-62
2022/01/12 11:18:30;;;;;;;14.80;5.90;;;;;;;-12.55;69.73;100791.79;109488;1272;23209;-62
2022/01/12 11:21:18;;;;;;;12.00;5.40;;;;;;;-12.55;71.39;100792.65;109345;1273;138532;-63
2022/01/12 11:23:46;;;;;;;6.80;4.30;;;;;;;-12.51;73.06;100787.08;109380;1272;22456;-62
2022/01/12 11:26:27;;;;;;;13.50;5.20;;;;;;;-12.43;73.30;100791.20;109386;1272;140104;-62
2022/01/12 11:28:56;;;;;;;11.70;5.40;;;;;;;-12.38;73.54;100784.80;109397;1273;22564;-63
2022/01/12 11:31:26;;;;;;;10.40;4.90;;;;;;;-12.35;73.27;100791.94;105347;1273;139248;-62
2022/01/12 11:33:54;;;;;;;9.80;4.60;;;;;;;-12.35;73.02;100788.98;109547;1271;22550;-63
2022/01/12 11:36:24;;;;;;;11.60;4.90;;;;;;;-12.37;72.64;100789.48;105749;1273;22559;-63
2022/01/12 11:39:00;;;;;;;11.90;4.20;;;;;;;-12.39;73.01;100784.13;109399;1271;138791;-63
2022/01/12 11:41:40;;;;;;;9.40;4.20;;;;;;;-12.38;73.09;100787.06;109562;1273;22538;-59
2022/01/12 11:44:08;;;;;;;9.40;5.60;;;;;;;-12.40;74.05;100788.38;109338;1271;138158;-59
2022/01/12 11:46:45;;;;;;;9.60;3.70;;;;;;;-12.42;74.72;100787.63;109482;1273;22618;-59
2022/01/12 11:49:31;;;;;;;11.00;4.50;;;;;;;-12.44;74.24;100782.83;109369;1271;139014;-59
2022/01/12 11:52:03;;;;;;;11.60;4.70;;;;;;;-12.48;74.40;100778.68;109547;1273;23267;-59
2022/01/12 11:54:38;;;;;;;13.70;5.30;;;;;;;-12.50;74.56;100778.77;109472;1272;22427;-59
2022/01/12 11:57:07;;;;;;;11.40;4.70;;;;;;;-12.47;74.69;100781.95;109363;1271;139174;-59
2022/01/12 11:59:52;;;;;;;9.10;5.20;;;;;;;-12.40;74.70;100787.73;109485;1271;22441;-59
2022/01/12 12:02:30;;;;;;;10.30;5.10;;;;;;;-12.34;74.35;100784.77;109375;1271;138963;-59
2022/01/12 12:05:00;;;;;;;11.50;5.00;;;;;;;-12.32;73.95;100780.60;109536;1271;22437;-59
2022/01/12 12:07:28;;;;;;;11.00;5.00;;;;;;;-12.31;74.36;100778.45;109369;1271;139632;-59
2022/01/12 12:09:57;;;;;;;11.80;5.70;;;;;;;-12.26;74.27;100771.17;109504;1271;22406;-59
2022/01/12 12:12:29;;;;;;;12.10;5.30;;;;;;;-12.20;73.85;100774.70;109378;1273;22572;-59
2022/01/12 12:15:13;;;;;;;;;;;;;;;-12.17;73.85;100770.67;109421;1272;140140;-59
2022/01/12 12:17:41;;;;;;;18.20;7.10;;;;;;;-12.11;73.71;100767.95;109521;1272;22524;-63
2022/01/12 12:20:11;;;;;;;12.70;6.30;;;;;;;-12.08;73.60;100765.84;109401;1272;138783;-64
2022/01/12 12:22:40;;;;;;;14.30;5.60;;;;;;;-12.03;73.19;100766.75;109519;1272;22427;-64
2022/01/12 12:25:25;;;;;;;14.70;6.50;;;;;;;-11.99;73.14;100766.91;109371;1271;139418;-63
2022/01/12 12:28:03;;;;;;;14.40;6.40;;;;;;;-11.99;73.47;100763.20;109367;1273;22423;-63
2022/01/12 12:30:32;;;;;;;26.50;10.50;;;;;;;-11.97;73.32;100761.51;109498;1272;22567;-63